createdAt,value
2022-09-22T00:03:37.661Z,11.00
2022-09-22T01:24:22.317Z,9.30
2022-09-22T01:27:07.790Z,9.40
2022-09-22T01:30:11.991Z,9.40
2022-09-22T01:35:58.851Z,9.20
2022-09-22T01:38:52.249Z,9.20
2022-09-22T03:36:52.009Z,8.50
2022-09-22T03:39:18.829Z,8.80
2022-09-22T08:04:07.063Z,8.40
2022-09-22T08:06:35.168Z,11.20
2022-09-22T10:30:15.222Z,11.20
2022-09-22T11:10:08.699Z,17.70
2022-09-22T11:13:02.725Z,20.50
2022-09-22T11:15:38.005Z,20.60
2022-09-22T11:18:39.794Z,20.20
2022-09-22T11:24:28.779Z,20.30
2022-09-22T11:26:59.333Z,20.80
2022-09-22T11:32:21.800Z,21.10
2022-09-22T11:35:00.610Z,21.70
2022-09-22T11:37:42.909Z,21.40
2022-09-22T12:34:06.168Z,21.50
2022-09-22T12:36:39.129Z,23.10
2022-09-22T12:39:12.088Z,22.80
2022-09-22T15:41:17.441Z,23.80
2022-09-22T15:43:44.553Z,21.50
2022-09-22T15:46:31.578Z,21.30
2022-09-22T15:49:01.550Z,21.00
2022-09-22T15:51:30.398Z,21.00
2022-09-22T15:53:57.795Z,21.20
2022-09-22T15:56:28.782Z,21.10
2022-09-22T15:58:59.407Z,20.50
2022-09-22T16:01:29.849Z,20.50
2022-09-22T16:04:00.317Z,20.40
2022-09-22T16:06:28.259Z,20.30
2022-09-22T16:08:55.741Z,19.90
2022-09-22T16:11:29.920Z,19.90
2022-09-22T16:14:03.521Z,20.10
2022-09-22T16:16:32.489Z,20.40
2022-09-22T16:19:00.502Z,20.10
2022-09-22T16:21:34.992Z,20.00
2022-09-22T16:24:08.602Z,19.80
2022-09-22T16:26:37.753Z,19.80
2022-09-22T16:29:05.407Z,19.70
2022-09-22T16:31:33.628Z,19.40
2022-09-22T16:34:03.282Z,19.40
2022-09-22T16:36:34.397Z,19.20
2022-09-22T16:39:02.003Z,19.20
2022-09-22T16:41:34.737Z,19.20
2022-09-22T16:44:02.257Z,19.10
2022-09-22T16:46:30.709Z,19.10
2022-09-22T16:49:09.922Z,19.00
2022-09-22T16:51:40.152Z,18.80
2022-09-22T16:54:10.522Z,18.80
2022-09-22T16:56:38.238Z,18.80
2022-09-22T16:59:05.578Z,18.70
2022-09-22T17:01:38.148Z,18.40
2022-09-22T17:04:07.063Z,18.70
2022-09-22T17:06:36.217Z,18.40
2022-09-22T17:09:03.967Z,18.50
2022-09-22T17:11:35.529Z,18.40
2022-09-22T17:14:10.050Z,18.30
2022-09-22T17:16:48.266Z,18.30
2022-09-22T17:19:21.098Z,18.20
2022-09-22T17:21:52.056Z,18.10
2022-09-22T17:24:19.456Z,18.00
2022-09-22T17:26:55.210Z,17.90
2022-09-22T17:29:27.599Z,17.90
2022-09-22T17:32:02.450Z,17.90
2022-09-22T17:34:32.954Z,17.70
2022-09-22T17:37:00.755Z,17.60
2022-09-22T17:39:29.032Z,17.40
2022-09-22T17:41:56.611Z,17.40
2022-09-22T18:15:05.048Z,17.30
2022-09-22T18:17:35.075Z,16.60
2022-09-22T18:20:02.219Z,16.50
2022-09-22T18:22:29.920Z,16.40
2022-09-22T18:24:57.247Z,16.40
2022-09-22T18:27:29.188Z,16.20
2022-09-22T18:29:59.301Z,16.20
2022-09-22T18:32:29.163Z,16.20
2022-09-22T18:34:56.385Z,16.20
2022-09-22T18:37:27.003Z,16.20
2022-09-22T18:39:56.678Z,16.20
2022-09-22T18:42:24.619Z,16.10
2022-09-22T18:44:52.647Z,16.00
2022-09-22T18:47:23.519Z,15.90
2022-09-22T18:49:51.835Z,15.90
2022-09-22T18:52:23.902Z,15.80
2022-09-22T18:54:54.231Z,15.80
2022-09-22T18:57:23.191Z,15.70
2022-09-22T18:59:51.371Z,15.70
2022-09-22T19:02:23.409Z,15.70
2022-09-22T22:54:05.175Z,15.70
2022-09-22T22:56:32.720Z,13.10
2022-09-22T22:59:00.100Z,12.90
2022-09-22T23:01:29.462Z,12.80
2022-09-22T23:04:01.741Z,12.80
2022-09-22T23:06:35.887Z,12.70
2022-09-22T23:09:04.919Z,12.80
